Date,TemperatureHighF,TemperatureAvgF,TemperatureLowF,DewpointHighF,DewpointAvgF,DewpointLowF,HumidityHigh,HumidityAvg,HumidityLow,PressureMaxIn,PressureMinIn,WindSpeedMaxMPH,WindSpeedAvgMPH,GustSpeedMaxMPH,PrecipitationSumIn
2013-3-1,79.0,73.2,70.0,59.0,56.8,54.0,66,57,45,0.00,40.00,15,11,25,0.00
2013-3-2,80.0,73.5,69.0,59.0,56.7,53.0,68,56,40,0.00,40.00,15,10,27,0.00
2013-3-3,79.0,72.9,68.0,58.0,54.2,50.0,63,52,40,0.00,40.00,13,10,24,0.00
2013-3-4,80.0,72.3,65.0,60.0,55.3,52.0,67,56,42,0.00,40.00,12,7,21,0.00
2013-3-5,81.0,71.8,62.0,60.0,55.4,52.0,77,58,39,0.00,40.00,12,6,21,0.00
2013-3-6,83.0,73.0,65.0,66.0,59.9,58.0,87,65,44,0.00,40.00,11,6,19,0.00
2013-3-7,83.0,71.0,61.0,64.0,60.1,56.0,90,71,41,0.00,40.00,8,5,13,0.00
2013-3-8,83.0,71.1,61.0,65.0,60.1,49.0,95,72,31,0.00,40.00,9,5,17,0.00
2013-3-9,81.0,73.5,67.0,68.0,65.3,63.0,96,77,57,0.00,40.00,14,7,22,0.67
2013-3-10,72.0,67.5,62.0,70.0,66.2,61.0,98,96,91,0.00,40.00,7,4,16,1.80
2013-3-11,81.0,70.1,60.0,67.0,61.4,59.0,98,77,50,0.00,40.00,7,4,13,0.42
2013-3-12,79.0,70.4,64.0,65.0,60.8,58.0,85,73,55,0.00,40.00,10,5,14,0.09
2013-3-13,80.0,69.0,61.0,63.0,58.7,57.0,88,71,50,0.00,40.00,8,6,15,0.14
2013-3-14,79.0,69.5,63.0,64.0,60.0,56.0,91,74,48,0.00,40.00,9,4,14,0.08
2013-3-15,77.0,69.1,60.0,64.0,59.4,56.0,93,73,53,0.00,40.00,14,6,22,0.01
2013-3-16,77.0,69.2,62.0,61.0,55.9,51.0,81,64,45,0.00,40.00,12,7,24,0.00
2013-3-17,79.0,67.5,59.0,61.0,55.7,49.0,89,69,38,0.00,40.00,9,5,17,0.00
2013-3-18,76.0,67.0,58.0,62.0,56.7,51.0,89,72,42,0.00,40.00,6,4,11,0.00
2013-3-19,81.0,69.6,60.0,64.0,60.5,57.0,90,75,51,0.00,40.00,7,5,15,0.00
2013-3-20,82.0,72.3,62.0,68.0,63.4,60.0,92,75,49,0.00,40.00,9,5,12,0.00
2013-3-21,84.0,74.2,65.0,70.0,65.8,61.0,91,76,60,0.00,40.00,7,4,14,0.00
2013-3-22,80.0,75.0,71.0,70.0,66.8,63.0,86,76,60,0.00,40.00,10,5,16,0.00
2013-3-23,79.0,72.7,69.0,66.0,63.6,62.0,86,74,59,0.00,40.00,12,7,19,0.00
2013-3-24,72.0,70.2,65.0,69.0,65.4,62.0,94,85,75,0.00,40.00,8,4,12,0.24
2013-3-25,82.0,71.1,64.0,72.0,66.1,61.0,93,84,64,0.00,40.00,9,4,15,0.04
2013-3-26,82.0,71.9,64.0,69.0,65.1,62.0,94,80,58,0.00,40.00,9,4,14,0.01
2013-3-27,76.0,70.9,67.0,71.0,66.4,64.0,89,86,76,0.00,40.00,9,6,15,0.04
2013-3-28,81.0,76.2,69.0,67.0,62.9,61.0,85,65,53,0.00,40.00,14,8,25,0.02
2013-3-29,80.0,71.8,66.0,68.0,63.4,61.0,93,76,58,0.00,40.00,14,6,23,0.01
2013-3-30,81.0,71.6,65.0,71.0,60.5,-99.9,89,73,48,0.00,40.00,12,6,20,0.01
2013-3-31,76.0,67.4,58.0,58.0,52.9,50.0,84,62,41,0.00,40.00,13,7,24,0.00